sensor_id;sensor_type;location;lat;lon;timestamp;pressure;altitude;pressure_sealevel;temperature;humidity
76201;BME280;64981;52.930;9.266;2023-05-10T00:01:14;100414.03;;;15.35;41.07
76201;BME280;64981;52.930;9.266;2023-05-10T00:03:42;100345.94;;;14.99;40.99
76201;BME280;64981;52.930;9.266;2023-05-10T00:06:10;100436.97;;;15.42;41.22
76201;BME280;64981;52.930;9.266;2023-05-10T00:08:36;100296.94;;;14.68;41.00
76201;BME280;64981;52.930;9.266;2023-05-10T00:11:04;100352.66;;;14.89;41.53
76201;BME280;64981;52.930;9.266;2023-05-10T00:13:36;100343.06;;;14.94;41.39
76201;BME280;64981;52.930;9.266;2023-05-10T00:16:07;100355.56;;;14.94;41.42
76201;BME280;64981;52.930;9.266;2023-05-10T00:18:41;100416.88;;;15.33;41.58
76201;BME280;64981;52.930;9.266;2023-05-10T00:21:06;100318.03;;;14.76;41.47
76201;BME280;64981;52.930;9.266;2023-05-10T00:23:35;100411.72;;;15.19;42.19
76201;BME280;64981;52.930;9.266;2023-05-10T00:26:02;100315.38;;;14.76;41.49
76201;BME280;64981;52.930;9.266;2023-05-10T00:28:30;100414.41;;;15.25;42.02
76201;BME280;64981;52.930;9.266;2023-05-10T00:30:58;100340.91;;;14.70;42.70
76201;BME280;64981;52.930;9.266;2023-05-10T00:33:26;100318.78;;;14.50;42.91
76201;BME280;64981;52.930;9.266;2023-05-10T00:36:00;100405.19;;;15.21;42.62
76201;BME280;64981;52.930;9.266;2023-05-10T00:38:48;100408.06;;;15.33;42.17
76201;BME280;64981;52.930;9.266;2023-05-10T00:41:20;100409.09;;;15.25;42.69
76201;BME280;64981;52.930;9.266;2023-05-10T00:43:48;100406.41;;;15.19;42.97
76201;BME280;64981;52.930;9.266;2023-05-10T00:46:34;100306.88;;;14.46;43.13
76201;BME280;64981;52.930;9.266;2023-05-10T00:49:05;100383.28;;;15.19;43.05
76201;BME280;64981;52.930;9.266;2023-05-10T00:51:36;100302.19;;;14.48;43.21
76201;BME280;64981;52.930;9.266;2023-05-10T00:54:03;100362.47;;;14.88;43.21
76201;BME280;64981;52.930;9.266;2023-05-10T00:56:29;100345.25;;;14.78;43.11
76201;BME280;64981;52.930;9.266;2023-05-10T00:59:05;100403.22;;;15.02;43.38
76201;BME280;64981;52.930;9.266;2023-05-10T01:01:31;100393.19;;;14.91;43.94
76201;BME280;64981;52.930;9.266;2023-05-10T01:03:58;100391.31;;;14.85;43.97
76201;BME280;64981;52.930;9.266;2023-05-10T01:06:28;100350.94;;;14.68;43.77
76201;BME280;64981;52.930;9.266;2023-05-10T01:08:54;100404.28;;;14.67;44.72
76201;BME280;64981;52.930;9.266;2023-05-10T01:11:20;100316.19;;;14.22;44.59
76201;BME280;64981;52.930;9.266;2023-05-10T01:13:55;100354.78;;;14.59;44.66
76201;BME280;64981;52.930;9.266;2023-05-10T01:16:23;100386.53;;;14.74;44.78
76201;BME280;64981;52.930;9.266;2023-05-10T01:19:05;100391.91;;;14.80;44.50
76201;BME280;64981;52.930;9.266;2023-05-10T01:21:46;100355.34;;;14.48;45.10
76201;BME280;64981;52.930;9.266;2023-05-10T01:24:42;100320.72;;;14.28;45.09
76201;BME280;64981;52.930;9.266;2023-05-10T01:33:27;100318.78;;;14.16;45.45
76201;BME280;64981;52.930;9.266;2023-05-10T01:36:30;100389.56;;;14.64;45.60
76201;BME280;64981;52.930;9.266;2023-05-10T01:39:15;100283.69;;;13.92;45.69
76201;BME280;64981;52.930;9.266;2023-05-10T01:42:01;100301.78;;;14.10;45.60
76201;BME280;64981;52.930;9.266;2023-05-10T01:47:41;100364.53;;;14.45;45.94
76201;BME280;64981;52.930;9.266;2023-05-10T01:50:19;100367.34;;;14.37;46.43
76201;BME280;64981;52.930;9.266;2023-05-10T01:52:58;100382.06;;;14.40;46.59
76201;BME280;64981;52.930;9.266;2023-05-10T01:55:30;100348.28;;;14.27;46.29
76201;BME280;64981;52.930;9.266;2023-05-10T01:58:20;100383.38;;;14.57;46.28
76201;BME280;64981;52.930;9.266;2023-05-10T02:00:49;100334.34;;;14.19;46.59
76201;BME280;64981;52.930;9.266;2023-05-10T02:03:24;100379.22;;;14.41;46.77
76201;BME280;64981;52.930;9.266;2023-05-10T02:05:54;100300.44;;;13.93;47.03
76201;BME280;64981;52.930;9.266;2023-05-10T02:08:22;100345.19;;;13.96;47.64
76201;BME280;64981;52.930;9.266;2023-05-10T02:10:51;100335.06;;;14.06;47.55
76201;BME280;64981;52.930;9.266;2023-05-10T02:13:18;100347.91;;;14.02;47.67
76201;BME280;64981;52.930;9.266;2023-05-10T02:15:51;100381.31;;;14.18;47.96
76201;BME280;64981;52.930;9.266;2023-05-10T02:18:20;100323.78;;;13.76;48.28
76201;BME280;64981;52.930;9.266;2023-05-10T02:20:53;100349.31;;;13.98;48.29
76201;BME280;64981;52.930;9.266;2023-05-10T02:23:23;100343.03;;;14.06;47.88
76201;BME280;64981;52.930;9.266;2023-05-10T02:25:58;100330.13;;;13.75;48.58
76201;BME280;64981;52.930;9.266;2023-05-10T02:28:26;100326.34;;;13.63;48.60
76201;BME280;64981;52.930;9.266;2023-05-10T02:31:06;100374.38;;;13.96;48.99
76201;BME280;64981;52.930;9.266;2023-05-10T02:33:54;100376.59;;;13.92;48.85
76201;BME280;64981;52.930;9.266;2023-05-10T02:36:29;100289.03;;;13.22;49.52
76201;BME280;64981;52.930;9.266;2023-05-10T02:38:58;100280.84;;;13.17;50.05
76201;BME280;64981;52.930;9.266;2023-05-10T02:41:30;100379.97;;;13.80;49.84
76201;BME280;64981;52.930;9.266;2023-05-10T02:44:02;100334.06;;;13.58;49.64
76201;BME280;64981;52.930;9.266;2023-05-10T02:46:31;100284.94;;;13.20;50.04
76201;BME280;64981;52.930;9.266;2023-05-10T02:48:57;100395.50;;;13.83;50.29
76201;BME280;64981;52.930;9.266;2023-05-10T02:51:28;100330.47;;;13.44;50.54
76201;BME280;64981;52.930;9.266;2023-05-10T02:54:10;100350.88;;;13.65;50.17
76201;BME280;64981;52.930;9.266;2023-05-10T02:56:43;100334.72;;;13.67;49.77
76201;BME280;64981;52.930;9.266;2023-05-10T02:59:13;100397.53;;;14.02;50.19
76201;BME280;64981;52.930;9.266;2023-05-10T03:01:39;100399.66;;;14.13;49.91
76201;BME280;64981;52.930;9.266;2023-05-10T03:04:05;100274.06;;;13.36;49.92
76201;BME280;64981;52.930;9.266;2023-05-10T03:06:32;100279.13;;;13.31;50.15
76201;BME280;64981;52.930;9.266;2023-05-10T03:08:59;100369.56;;;13.78;50.72
76201;BME280;64981;52.930;9.266;2023-05-10T03:11:48;100381.09;;;13.92;50.62
76201;BME280;64981;52.930;9.266;2023-05-10T03:20:08;100283.69;;;13.16;51.45
76201;BME280;64981;52.930;9.266;2023-05-10T03:22:41;100357.19;;;13.64;51.36
76201;BME280;64981;52.930;9.266;2023-05-10T03:25:12;100375.72;;;13.85;51.62
76201;BME280;64981;52.930;9.266;2023-05-10T03:27:41;100376.38;;;13.87;51.51
76201;BME280;64981;52.930;9.266;2023-05-10T03:30:23;100370.50;;;13.71;52.12
76201;BME280;64981;52.930;9.266;2023-05-10T03:32:49;100372.16;;;13.72;52.25
76201;BME280;64981;52.930;9.266;2023-05-10T03:35:18;100370.34;;;13.79;52.25
76201;BME280;64981;52.930;9.266;2023-05-10T03:37:50;100296.00;;;13.23;52.15
76201;BME280;64981;52.930;9.266;2023-05-10T03:40:15;100373.97;;;13.71;52.32
76201;BME280;64981;52.930;9.266;2023-05-10T03:42:43;100295.28;;;13.36;51.89
76201;BME280;64981;52.930;9.266;2023-05-10T03:45:11;100376.06;;;13.76;52.41
76201;BME280;64981;52.930;9.266;2023-05-10T03:47:40;100379.84;;;13.88;52.07
76201;BME280;64981;52.930;9.266;2023-05-10T03:50:06;100302.75;;;13.26;52.67
76201;BME280;64981;52.930;9.266;2023-05-10T03:52:38;100378.28;;;13.72;52.94
76201;BME280;64981;52.930;9.266;2023-05-10T03:55:12;100371.44;;;13.63;53.18
76201;BME280;64981;52.930;9.266;2023-05-10T03:57:40;100376.00;;;13.69;53.13
76201;BME280;64981;52.930;9.266;2023-05-10T04:00:06;100347.25;;;13.51;53.16
76201;BME280;64981;52.930;9.266;2023-05-10T04:02:32;100286.91;;;13.11;53.11
76201;BME280;64981;52.930;9.266;2023-05-10T04:04:58;100372.22;;;13.57;53.56
76201;BME280;64981;52.930;9.266;2023-05-10T04:07:23;100281.84;;;13.16;53.07
76201;BME280;64981;52.930;9.266;2023-05-10T04:09:49;100374.88;;;13.57;53.72
76201;BME280;64981;52.930;9.266;2023-05-10T04:12:15;100295.16;;;13.23;53.18
76201;BME280;64981;52.930;9.266;2023-05-10T04:14:40;100378.78;;;13.61;53.42
76201;BME280;64981;52.930;9.266;2023-05-10T04:17:06;100379.91;;;13.73;53.08
76201;BME280;64981;52.930;9.266;2023-05-10T04:19:43;100358.56;;;13.60;53.40
76201;BME280;64981;52.930;9.266;2023-05-10T04:22:11;100274.03;;;13.08;53.37
76201;BME280;64981;52.930;9.266;2023-05-10T04:24:37;100369.88;;;13.69;53.30
76201;BME280;64981;52.930;9.266;2023-05-10T04:27:02;100319.75;;;13.31;53.58
76201;BME280;64981;52.930;9.266;2023-05-10T04:29:30;100344.13;;;13.63;53.50
76201;BME280;64981;52.930;9.266;2023-05-10T04:32:22;100401.72;;;13.69;53.85
76201;BME280;64981;52.930;9.266;2023-05-10T04:35:25;100381.34;;;13.76;53.97
76201;BME280;64981;52.930;9.266;2023-05-10T04:38:04;100312.09;;;13.22;54.50
76201;BME280;64981;52.930;9.266;2023-05-10T04:40:32;100388.84;;;13.66;55.19
76201;BME280;64981;52.930;9.266;2023-05-10T04:43:08;100379.78;;;13.60;56.06
76201;BME280;64981;52.930;9.266;2023-05-10T04:45:37;100317.13;;;13.17;56.54
76201;BME280;64981;52.930;9.266;2023-05-10T04:48:05;100365.31;;;13.41;57.64
76201;BME280;64981;52.930;9.266;2023-05-10T04:51:06;100384.03;;;13.55;57.07
76201;BME280;64981;52.930;9.266;2023-05-10T04:53:35;100333.19;;;13.09;59.17
76201;BME280;64981;52.930;9.266;2023-05-10T04:56:13;100314.72;;;13.01;59.12
76201;BME280;64981;52.930;9.266;2023-05-10T04:58:42;100371.63;;;13.19;59.88
76201;BME280;64981;52.930;9.266;2023-05-10T05:01:15;100395.19;;;13.29;60.32
76201;BME280;64981;52.930;9.266;2023-05-10T05:03:43;100276.00;;;12.49;61.63
76201;BME280;64981;52.930;9.266;2023-05-10T05:06:12;100333.97;;;12.73;61.97
76201;BME280;64981;52.930;9.266;2023-05-10T05:08:41;100322.75;;;12.57;63.18
76201;BME280;64981;52.930;9.266;2023-05-10T05:11:07;100334.09;;;12.65;63.29
76201;BME280;64981;52.930;9.266;2023-05-10T05:13:32;100412.84;;;12.86;63.83
76201;BME280;64981;52.930;9.266;2023-05-10T05:16:01;100406.44;;;12.95;63.89
76201;BME280;64981;52.930;9.266;2023-05-10T05:18:26;100338.38;;;12.52;63.28
76201;BME280;64981;52.930;9.266;2023-05-10T05:20:52;100369.41;;;12.72;64.01
76201;BME280;64981;52.930;9.266;2023-05-10T05:23:18;100323.25;;;12.31;66.45
76201;BME280;64981;52.930;9.266;2023-05-10T05:25:49;100328.91;;;12.28;64.95
76201;BME280;64981;52.930;9.266;2023-05-10T05:28:20;100353.38;;;12.30;66.89
76201;BME280;64981;52.930;9.266;2023-05-10T05:30:52;100367.28;;;12.47;65.55
76201;BME280;64981;52.930;9.266;2023-05-10T05:33:21;100324.34;;;12.22;65.19
76201;BME280;64981;52.930;9.266;2023-05-10T05:36:19;100344.16;;;12.11;67.03
76201;BME280;64981;52.930;9.266;2023-05-10T05:39:01;100321.00;;;11.76;68.53
76201;BME280;64981;52.930;9.266;2023-05-10T05:41:37;100309.06;;;11.80;66.79
76201;BME280;64981;52.930;9.266;2023-05-10T05:44:33;100385.88;;;12.09;67.73
76201;BME280;64981;52.930;9.266;2023-05-10T05:47:19;100371.25;;;12.13;67.42
76201;BME280;64981;52.930;9.266;2023-05-10T05:50:38;100421.88;;;12.33;69.45
76201;BME280;64981;52.930;9.266;2023-05-10T05:56:56;100334.50;;;11.44;71.42
76201;BME280;64981;52.930;9.266;2023-05-10T05:59:54;100442.56;;;12.15;71.57
76201;BME280;64981;52.930;9.266;2023-05-10T06:06:19;100455.09;;;12.35;70.64
76201;BME280;64981;52.930;9.266;2023-05-10T06:08:45;100391.94;;;11.95;70.21
76201;BME280;64981;52.930;9.266;2023-05-10T06:11:17;100418.06;;;11.98;70.95
76201;BME280;64981;52.930;9.266;2023-05-10T06:13:42;100377.38;;;11.54;71.92
76201;BME280;64981;52.930;9.266;2023-05-10T06:16:19;100424.34;;;11.97;70.67
76201;BME280;64981;52.930;9.266;2023-05-10T06:19:02;100451.75;;;12.04;71.90
76201;BME280;64981;52.930;9.266;2023-05-10T06:22:29;100371.41;;;11.37;72.83
76201;BME280;64981;52.930;9.266;2023-05-10T06:25:08;100483.03;;;12.23;72.09
76201;BME280;64981;52.930;9.266;2023-05-10T06:27:37;100490.94;;;12.09;73.45
76201;BME280;64981;52.930;9.266;2023-05-10T06:30:32;100480.50;;;12.07;72.24
76201;BME280;64981;52.930;9.266;2023-05-10T06:32:57;100471.13;;;11.82;74.15
76201;BME280;64981;52.930;9.266;2023-05-10T06:35:23;100493.13;;;12.05;73.45
76201;BME280;64981;52.930;9.266;2023-05-10T06:37:49;100485.13;;;11.68;74.34
76201;BME280;64981;52.930;9.266;2023-05-10T06:40:15;100430.69;;;11.43;73.24
76201;BME280;64981;52.930;9.266;2023-05-10T06:42:41;100508.50;;;11.79;73.75
76201;BME280;64981;52.930;9.266;2023-05-10T06:45:07;100430.91;;;11.33;73.02
76201;BME280;64981;52.930;9.266;2023-05-10T06:47:33;100476.50;;;11.66;72.41
76201;BME280;64981;52.930;9.266;2023-05-10T06:50:09;100466.19;;;11.48;74.42
76201;BME280;64981;52.930;9.266;2023-05-10T06:52:39;100437.13;;;11.17;74.07
76201;BME280;64981;52.930;9.266;2023-05-10T06:55:30;100510.28;;;11.64;74.81
76201;BME280;64981;52.930;9.266;2023-05-10T06:58:09;100508.94;;;11.68;75.41
76201;BME280;64981;52.930;9.266;2023-05-10T07:00:37;100469.66;;;11.49;75.08
76201;BME280;64981;52.930;9.266;2023-05-10T07:03:22;100382.03;;;10.98;74.97
76201;BME280;64981;52.930;9.266;2023-05-10T07:05:49;100489.78;;;11.58;74.92
76201;BME280;64981;52.930;9.266;2023-05-10T07:08:14;100480.63;;;11.37;76.73
76201;BME280;64981;52.930;9.266;2023-05-10T07:10:40;100502.03;;;11.51;77.96
76201;BME280;64981;52.930;9.266;2023-05-10T07:13:13;100428.00;;;10.89;77.96
76201;BME280;64981;52.930;9.266;2023-05-10T07:15:38;100518.94;;;11.50;77.24
76201;BME280;64981;52.930;9.266;2023-05-10T07:18:44;100519.84;;;11.57;78.09
76201;BME280;64981;52.930;9.266;2023-05-10T07:21:12;100468.16;;;11.23;77.67
76201;BME280;64981;52.930;9.266;2023-05-10T07:24:08;100428.47;;;10.93;77.83
76201;BME280;64981;52.930;9.266;2023-05-10T07:27:34;100509.13;;;11.27;78.71
76201;BME280;64981;52.930;9.266;2023-05-10T07:30:42;100423.25;;;10.76;79.88
76201;BME280;64981;52.930;9.266;2023-05-10T07:34:17;100406.22;;;10.79;79.13
76201;BME280;64981;52.930;9.266;2023-05-10T07:41:22;100405.25;;;10.80;79.12
76201;BME280;64981;52.930;9.266;2023-05-10T07:44:46;100538.19;;;11.66;79.31
76201;BME280;64981;52.930;9.266;2023-05-10T07:55:37;100537.28;;;11.82;79.51
76201;BME280;64981;52.930;9.266;2023-05-10T07:58:02;100537.22;;;11.90;79.37
76201;BME280;64981;52.930;9.266;2023-05-10T08:00:28;100543.00;;;11.94;80.21
76201;BME280;64981;52.930;9.266;2023-05-10T08:02:53;100539.09;;;12.04;80.57
76201;BME280;64981;52.930;9.266;2023-05-10T08:05:19;100544.47;;;12.19;80.18
76201;BME280;64981;52.930;9.266;2023-05-10T08:07:45;100545.59;;;12.24;79.87
76201;BME280;64981;52.930;9.266;2023-05-10T08:10:10;100548.72;;;12.28;80.16
76201;BME280;64981;52.930;9.266;2023-05-10T08:12:37;100552.22;;;12.43;80.30
76201;BME280;64981;52.930;9.266;2023-05-10T08:15:04;100556.66;;;12.65;79.44
76201;BME280;64981;52.930;9.266;2023-05-10T08:17:29;100560.31;;;12.64;78.99
76201;BME280;64981;52.930;9.266;2023-05-10T08:19:55;100565.59;;;12.64;80.63
76201;BME280;64981;52.930;9.266;2023-05-10T08:22:21;100570.94;;;12.79;79.96
76201;BME280;64981;52.930;9.266;2023-05-10T08:24:47;100566.47;;;12.79;80.32
76201;BME280;64981;52.930;9.266;2023-05-10T08:27:12;100570.06;;;13.01;79.11
76201;BME280;64981;52.930;9.266;2023-05-10T08:29:38;100576.97;;;13.25;78.47
76201;BME280;64981;52.930;9.266;2023-05-10T08:32:04;100584.09;;;13.10;79.23
76201;BME280;64981;52.930;9.266;2023-05-10T08:34:29;100584.09;;;13.10;79.21
76201;BME280;64981;52.930;9.266;2023-05-10T08:36:56;100586.00;;;13.30;78.07
76201;BME280;64981;52.930;9.266;2023-05-10T08:39:22;100591.59;;;13.21;78.98
76201;BME280;64981;52.930;9.266;2023-05-10T08:41:51;100591.31;;;13.16;79.20
76201;BME280;64981;52.930;9.266;2023-05-10T08:44:20;100593.41;;;13.20;79.75
76201;BME280;64981;52.930;9.266;2023-05-10T08:46:48;100583.09;;;13.25;79.66
76201;BME280;64981;52.930;9.266;2023-05-10T08:49:19;100588.03;;;13.28;80.46
76201;BME280;64981;52.930;9.266;2023-05-10T08:51:51;100607.50;;;13.50;80.08
76201;BME280;64981;52.930;9.266;2023-05-10T08:54:17;100608.03;;;13.45;79.80
76201;BME280;64981;52.930;9.266;2023-05-10T08:56:43;100607.03;;;13.61;79.13
76201;BME280;64981;52.930;9.266;2023-05-10T08:59:09;100601.44;;;13.71;78.50
76201;BME280;64981;52.930;9.266;2023-05-10T09:01:36;100611.28;;;13.77;78.69
76201;BME280;64981;52.930;9.266;2023-05-10T09:04:03;100611.22;;;13.70;79.52
76201;BME280;64981;52.930;9.266;2023-05-10T09:06:29;100615.41;;;13.79;78.38
76201;BME280;64981;52.930;9.266;2023-05-10T09:08:55;100615.69;;;13.70;79.57
76201;BME280;64981;52.930;9.266;2023-05-10T09:11:21;100622.53;;;13.79;79.28
76201;BME280;64981;52.930;9.266;2023-05-10T09:13:50;100619.34;;;13.83;80.21
76201;BME280;64981;52.930;9.266;2023-05-10T09:16:17;100625.13;;;13.87;80.08
76201;BME280;64981;52.930;9.266;2023-05-10T09:18:43;100620.44;;;14.03;79.86
76201;BME280;64981;52.930;9.266;2023-05-10T09:21:09;100622.06;;;14.04;79.89
76201;BME280;64981;52.930;9.266;2023-05-10T09:23:35;100620.91;;;14.28;79.25
76201;BME280;64981;52.930;9.266;2023-05-10T09:26:04;100623.66;;;14.20;79.19
76201;BME280;64981;52.930;9.266;2023-05-10T09:28:34;100623.28;;;14.44;78.97
76201;BME280;64981;52.930;9.266;2023-05-10T09:31:15;100632.09;;;14.45;78.93
76201;BME280;64981;52.930;9.266;2023-05-10T09:33:45;100631.41;;;14.57;78.64
76201;BME280;64981;52.930;9.266;2023-05-10T09:36:12;100632.84;;;14.60;78.50
76201;BME280;64981;52.930;9.266;2023-05-10T09:38:53;100634.94;;;14.65;79.27
76201;BME280;64981;52.930;9.266;2023-05-10T09:41:21;100637.06;;;14.76;78.78
76201;BME280;64981;52.930;9.266;2023-05-10T09:43:48;100641.28;;;14.91;78.21
76201;BME280;64981;52.930;9.266;2023-05-10T09:46:15;100643.44;;;15.02;78.22
76201;BME280;64981;52.930;9.266;2023-05-10T09:48:45;100634.53;;;15.10;79.20
76201;BME280;64981;52.930;9.266;2023-05-10T09:51:19;100633.44;;;15.32;78.23
76201;BME280;64981;52.930;9.266;2023-05-10T09:53:45;100640.28;;;15.48;78.64
76201;BME280;64981;52.930;9.266;2023-05-10T09:56:11;100644.50;;;15.70;75.59
76201;BME280;64981;52.930;9.266;2023-05-10T09:58:37;100633.91;;;15.83;75.15
76201;BME280;64981;52.930;9.266;2023-05-10T10:01:03;100632.09;;;15.90;74.72
76201;BME280;64981;52.930;9.266;2023-05-10T10:03:29;100637.06;;;16.00;75.16
76201;BME280;64981;52.930;9.266;2023-05-10T10:05:55;100647.97;;;16.11;74.21
76201;BME280;64981;52.930;9.266;2023-05-10T10:08:21;100633.00;;;16.04;74.61
76201;BME280;64981;52.930;9.266;2023-05-10T10:10:47;100643.66;;;16.04;74.54
76201;BME280;64981;52.930;9.266;2023-05-10T10:13:14;100651.16;;;15.87;74.82
76201;BME280;64981;52.930;9.266;2023-05-10T10:15:42;100648.94;;;15.97;72.58
76201;BME280;64981;52.930;9.266;2023-05-10T10:18:13;100647.63;;;15.80;72.56
76201;BME280;64981;52.930;9.266;2023-05-10T10:20:40;100655.75;;;15.66;75.13
76201;BME280;64981;52.930;9.266;2023-05-10T10:23:07;100658.38;;;15.59;76.68
76201;BME280;64981;52.930;9.266;2023-05-10T10:25:33;100657.81;;;15.70;76.24
76201;BME280;64981;52.930;9.266;2023-05-10T10:28:20;100659.50;;;15.78;75.16
76201;BME280;64981;52.930;9.266;2023-05-10T10:30:52;100662.13;;;15.71;74.26
76201;BME280;64981;52.930;9.266;2023-05-10T10:33:40;100669.94;;;15.79;73.66
76201;BME280;64981;52.930;9.266;2023-05-10T10:36:15;100666.88;;;15.82;73.79
76201;BME280;64981;52.930;9.266;2023-05-10T10:39:01;100674.50;;;15.92;72.95
76201;BME280;64981;52.930;9.266;2023-05-10T10:41:49;100666.13;;;15.95;71.97
76201;BME280;64981;52.930;9.266;2023-05-10T10:44:36;100667.44;;;16.05;71.39
76201;BME280;64981;52.930;9.266;2023-05-10T10:47:23;100678.41;;;15.89;73.24
76201;BME280;64981;52.930;9.266;2023-05-10T10:50:09;100669.59;;;15.89;72.85
76201;BME280;64981;52.930;9.266;2023-05-10T10:52:46;100668.41;;;16.04;74.07
76201;BME280;64981;52.930;9.266;2023-05-10T10:55:24;100664.38;;;16.08;73.65
76201;BME280;64981;52.930;9.266;2023-05-10T10:57:55;100667.50;;;16.25;71.00
76201;BME280;64981;52.930;9.266;2023-05-10T11:00:45;100660.16;;;16.40;69.75
76201;BME280;64981;52.930;9.266;2023-05-10T11:03:18;100667.34;;;16.40;69.30
76201;BME280;64981;52.930;9.266;2023-05-10T11:05:58;100667.78;;;16.56;69.17
76201;BME280;64981;52.930;9.266;2023-05-10T11:08:32;100665.72;;;16.58;68.19
76201;BME280;64981;52.930;9.266;2023-05-10T11:11:06;100661.03;;;16.54;68.68
76201;BME280;64981;52.930;9.266;2023-05-10T11:13:37;100664.69;;;16.53;67.60
76201;BME280;64981;52.930;9.266;2023-05-10T11:19:07;100674.09;;;16.29;69.68
76201;BME280;64981;52.930;9.266;2023-05-10T11:21:36;100671.41;;;16.36;71.00
76201;BME280;64981;52.930;9.266;2023-05-10T11:24:15;100676.34;;;16.39;69.93
76201;BME280;64981;52.930;9.266;2023-05-10T11:26:42;100684.19;;;16.47;69.04
76201;BME280;64981;52.930;9.266;2023-05-10T11:29:07;100679.44;;;16.42;69.91
76201;BME280;64981;52.930;9.266;2023-05-10T11:31:34;100679.59;;;16.28;69.73
76201;BME280;64981;52.930;9.266;2023-05-10T11:34:00;100682.91;;;16.36;70.67
76201;BME280;64981;52.930;9.266;2023-05-10T11:36:34;100678.56;;;16.22;70.91
76201;BME280;64981;52.930;9.266;2023-05-10T11:39:01;100680.19;;;16.23;71.89
76201;BME280;64981;52.930;9.266;2023-05-10T11:41:29;100681.69;;;16.32;72.59
76201;BME280;64981;52.930;9.266;2023-05-10T11:43:56;100685.13;;;16.26;71.05
76201;BME280;64981;52.930;9.266;2023-05-10T11:46:26;100681.28;;;16.48;70.67
76201;BME280;64981;52.930;9.266;2023-05-10T11:48:55;100686.44;;;16.56;70.02
76201;BME280;64981;52.930;9.266;2023-05-10T11:51:22;100690.19;;;16.82;68.02
76201;BME280;64981;52.930;9.266;2023-05-10T11:53:50;100692.41;;;16.65;66.95
76201;BME280;64981;52.930;9.266;2023-05-10T11:56:17;100700.03;;;16.75;66.74
76201;BME280;64981;52.930;9.266;2023-05-10T11:58:43;100702.50;;;16.69;66.97
76201;BME280;64981;52.930;9.266;2023-05-10T12:01:10;100700.63;;;16.77;66.65
76201;BME280;64981;52.930;9.266;2023-05-10T12:03:37;100706.78;;;16.70;67.40
76201;BME280;64981;52.930;9.266;2023-05-10T12:06:03;100704.06;;;16.57;68.59
76201;BME280;64981;52.930;9.266;2023-05-10T12:08:30;100709.03;;;16.60;68.87
76201;BME280;64981;52.930;9.266;2023-05-10T12:11:12;100707.41;;;16.66;69.95
76201;BME280;64981;52.930;9.266;2023-05-10T12:13:42;100711.06;;;16.58;69.96
76201;BME280;64981;52.930;9.266;2023-05-10T12:16:24;100724.41;;;16.65;69.11
76201;BME280;64981;52.930;9.266;2023-05-10T12:18:52;100714.22;;;16.88;67.42
76201;BME280;64981;52.930;9.266;2023-05-10T12:21:20;100717.94;;;17.00;65.93
76201;BME280;64981;52.930;9.266;2023-05-10T12:23:48;100714.63;;;16.85;66.05
76201;BME280;64981;52.930;9.266;2023-05-10T12:26:15;100719.56;;;17.01;65.77
76201;BME280;64981;52.930;9.266;2023-05-10T12:28:40;100723.66;;;17.23;64.88
76201;BME280;64981;52.930;9.266;2023-05-10T12:31:07;100720.19;;;17.30;64.42
76201;BME280;64981;52.930;9.266;2023-05-10T12:33:39;100730.84;;;17.36;64.55
76201;BME280;64981;52.930;9.266;2023-05-10T12:36:05;100734.16;;;17.32;66.71
76201;BME280;64981;52.930;9.266;2023-05-10T12:38:35;100732.50;;;17.44;64.46
76201;BME280;64981;52.930;9.266;2023-05-10T12:41:05;100739.28;;;17.40;65.55
76201;BME280;64981;52.930;9.266;2023-05-10T12:43:32;100730.06;;;17.29;66.57
76201;BME280;64981;52.930;9.266;2023-05-10T12:45:58;100733.53;;;17.49;64.98
76201;BME280;64981;52.930;9.266;2023-05-10T12:48:24;100739.47;;;17.58;65.45
76201;BME280;64981;52.930;9.266;2023-05-10T12:50:50;100738.25;;;17.47;65.83
76201;BME280;64981;52.930;9.266;2023-05-10T12:53:16;100739.28;;;17.59;66.16
76201;BME280;64981;52.930;9.266;2023-05-10T12:55:43;100728.81;;;17.51;65.64
76201;BME280;64981;52.930;9.266;2023-05-10T12:58:09;100735.75;;;17.65;64.57
76201;BME280;64981;52.930;9.266;2023-05-10T13:00:35;100755.25;;;17.86;63.64
76201;BME280;64981;52.930;9.266;2023-05-10T13:03:04;100760.22;;;17.75;63.85
76201;BME280;64981;52.930;9.266;2023-05-10T13:05:32;100756.53;;;17.50;65.42
76201;BME280;64981;52.930;9.266;2023-05-10T13:07:58;100752.63;;;17.53;66.08
76201;BME280;64981;52.930;9.266;2023-05-10T13:10:23;100758.38;;;17.50;67.14
76201;BME280;64981;52.930;9.266;2023-05-10T13:12:50;100760.63;;;17.59;65.83
76201;BME280;64981;52.930;9.266;2023-05-10T13:15:16;100759.56;;;17.73;65.68
76201;BME280;64981;52.930;9.266;2023-05-10T13:17:42;100764.75;;;17.55;65.79
76201;BME280;64981;52.930;9.266;2023-05-10T13:20:08;100764.75;;;17.49;65.11
76201;BME280;64981;52.930;9.266;2023-05-10T13:22:35;100774.00;;;17.40;65.82
76201;BME280;64981;52.930;9.266;2023-05-10T13:25:01;100775.22;;;17.37;67.13
76201;BME280;64981;52.930;9.266;2023-05-10T13:27:27;100785.31;;;17.29;67.29
76201;BME280;64981;52.930;9.266;2023-05-10T13:29:53;100788.94;;;17.01;69.17
76201;BME280;64981;52.930;9.266;2023-05-10T13:32:20;100782.81;;;17.01;70.19
76201;BME280;64981;52.930;9.266;2023-05-10T13:34:46;100778.25;;;16.95;70.63
76201;BME280;64981;52.930;9.266;2023-05-10T13:37:12;100779.06;;;16.95;70.84
76201;BME280;64981;52.930;9.266;2023-05-10T13:39:37;100773.56;;;17.03;70.94
76201;BME280;64981;52.930;9.266;2023-05-10T13:42:04;100789.59;;;17.10;70.45
76201;BME280;64981;52.930;9.266;2023-05-10T13:44:29;100774.13;;;16.99;71.11
76201;BME280;64981;52.930;9.266;2023-05-10T13:46:56;100787.94;;;17.09;70.25
76201;BME280;64981;52.930;9.266;2023-05-10T13:49:22;100781.72;;;16.95;69.92
76201;BME280;64981;52.930;9.266;2023-05-10T13:51:47;100785.06;;;17.04;69.90
76201;BME280;64981;52.930;9.266;2023-05-10T13:54:13;100779.75;;;17.10;69.51